createdAt,value
2019-04-11T00:00:35.664Z,54.99
2019-04-11T00:01:40.898Z,54.89
2019-04-11T00:02:36.602Z,55.33
2019-04-11T00:03:35.645Z,54.89
2019-04-11T00:04:35.588Z,55.54
2019-04-11T00:05:35.572Z,55.85
2019-04-11T00:06:35.896Z,56.13
2019-04-11T00:07:36.344Z,56.24
2019-04-11T00:08:37.041Z,56.24
2019-04-11T00:09:35.586Z,55.82
2019-04-11T00:10:35.561Z,55.82
2019-04-11T00:11:35.815Z,55.41
2019-04-11T00:12:36.586Z,55.30
2019-04-11T00:13:36.479Z,55.93
2019-04-11T00:14:35.876Z,55.93
2019-04-11T00:15:35.471Z,56.16
2019-04-11T00:16:35.459Z,56.03
2019-04-11T00:17:36.282Z,55.85
2019-04-11T00:18:35.553Z,56.34
2019-04-11T00:19:35.809Z,55.93
2019-04-11T00:20:36.066Z,56.13
2019-04-11T00:21:35.422Z,56.54
2019-04-11T00:22:35.411Z,56.34
2019-04-11T00:23:36.480Z,56.03
2019-04-11T00:24:35.392Z,56.47
2019-04-11T00:25:35.772Z,56.68
2019-04-11T00:26:36.189Z,56.57
2019-04-11T00:27:35.349Z,57.12
2019-04-11T00:28:35.334Z,56.60
2019-04-11T00:29:36.489Z,56.70
2019-04-11T00:30:36.466Z,57.12
2019-04-11T00:31:35.300Z,57.01
2019-04-11T00:32:35.896Z,57.94
2019-04-11T00:33:35.277Z,58.04
2019-04-11T00:34:35.288Z,58.04
2019-04-11T00:35:35.546Z,56.49
2019-04-11T00:36:35.249Z,57.12
2019-04-11T00:37:35.255Z,57.01
2019-04-11T00:38:36.159Z,56.81
2019-04-11T00:39:35.439Z,57.32
2019-04-11T00:40:35.483Z,57.12
2019-04-11T00:41:35.191Z,57.63
2019-04-11T00:42:35.182Z,57.84
2019-04-11T00:43:39.006Z,57.97
2019-04-11T00:44:36.162Z,58.59
2019-04-11T00:45:35.925Z,58.69
2019-04-11T00:46:36.179Z,59.21
2019-04-11T00:47:35.313Z,59.11
2019-04-11T00:48:35.603Z,58.90
2019-04-11T00:49:35.106Z,59.00
2019-04-11T00:50:35.111Z,58.31
2019-04-11T00:51:36.079Z,58.18
2019-04-11T00:52:35.078Z,59.21
2019-04-11T00:53:36.089Z,58.83
2019-04-11T00:54:35.300Z,59.34
2019-04-11T00:55:35.660Z,58.93
2019-04-11T00:56:35.029Z,59.24
2019-04-11T00:57:35.023Z,59.34
2019-04-11T00:58:35.999Z,59.21
2019-04-11T00:59:35.212Z,59.03
2019-04-11T01:00:36.493Z,59.24
2019-04-11T01:01:35.698Z,59.96
2019-04-11T01:02:35.796Z,59.24
2019-04-11T01:03:35.925Z,59.86
2019-04-11T01:04:34.987Z,59.55
2019-04-11T01:05:34.934Z,59.45
2019-04-11T01:06:34.915Z,60.06
2019-04-11T01:07:35.343Z,59.45
2019-04-11T01:08:35.700Z,60.48
2019-04-11T01:09:34.890Z,59.55
2019-04-11T01:10:34.879Z,60.27
2019-04-11T01:11:34.868Z,59.94
2019-04-11T01:12:34.853Z,59.96
2019-04-11T01:13:45.595Z,60.17
2019-04-11T01:14:37.212Z,60.27
2019-04-11T01:15:34.829Z,60.69
2019-04-11T01:16:34.931Z,60.38
2019-04-11T01:17:34.807Z,60.48
2019-04-11T01:18:34.799Z,59.86
2019-04-11T01:19:35.142Z,59.99
2019-04-11T01:20:35.525Z,60.69
2019-04-11T01:21:34.907Z,61.24
2019-04-11T01:22:34.744Z,60.89
2019-04-11T01:23:35.357Z,61.00
2019-04-11T01:24:35.609Z,60.48
2019-04-11T01:25:34.813Z,61.13
2019-04-11T01:26:35.066Z,60.72
2019-04-11T01:27:34.698Z,60.82
2019-04-11T01:28:34.678Z,61.10
2019-04-11T01:29:35.643Z,61.41
2019-04-11T01:30:34.667Z,61.62
2019-04-11T01:31:35.787Z,61.62
2019-04-11T01:32:34.738Z,61.44
2019-04-11T01:33:35.824Z,61.44
2019-04-11T01:34:34.983Z,61.44
2019-04-11T01:35:34.603Z,61.34
2019-04-11T01:36:35.345Z,61.03
2019-04-11T01:37:35.586Z,61.03
2019-04-11T01:38:34.719Z,60.93
2019-04-11T01:39:35.090Z,61.44
2019-04-11T01:40:34.556Z,61.34
2019-04-11T01:41:34.546Z,61.24
2019-04-11T01:42:35.574Z,61.86
2019-04-11T01:43:35.559Z,62.16
2019-04-11T01:44:34.712Z,61.96
2019-04-11T01:45:35.744Z,62.58
2019-04-11T01:46:34.485Z,62.79
2019-04-11T01:47:35.821Z,63.02
2019-04-11T01:48:35.392Z,62.92
2019-04-11T01:49:34.480Z,63.44
2019-04-11T01:50:34.907Z,62.71
2019-04-11T01:51:34.438Z,63.54
2019-04-11T01:52:34.426Z,62.71
2019-04-11T01:53:35.250Z,62.82
2019-04-11T01:54:35.451Z,62.71
2019-04-11T01:55:34.810Z,63.41
2019-04-11T01:56:34.391Z,62.82
2019-04-11T01:57:34.374Z,63.23
2019-04-11T01:58:35.082Z,62.68
2019-04-11T01:59:35.349Z,62.68
2019-04-11T02:00:34.430Z,63.51
2019-04-11T02:01:34.323Z,63.02
2019-04-11T02:02:34.750Z,62.68
2019-04-11T02:03:35.042Z,63.20
2019-04-11T02:04:34.306Z,63.02
2019-04-11T02:05:35.009Z,62.82
2019-04-11T02:06:34.283Z,63.23
2019-04-11T02:07:34.382Z,63.13
2019-04-11T02:08:35.473Z,63.20
2019-04-11T02:09:34.236Z,62.99
2019-04-11T02:10:34.995Z,63.13
2019-04-11T02:11:34.229Z,63.72
2019-04-11T02:12:35.211Z,63.54
2019-04-11T02:13:34.237Z,63.34
2019-04-11T02:14:35.386Z,63.62
2019-04-11T02:15:34.553Z,63.54
2019-04-11T02:16:34.856Z,64.06
2019-04-11T02:17:34.927Z,63.96
2019-04-11T02:18:35.164Z,64.17
2019-04-11T02:19:34.440Z,62.99
2019-04-11T02:20:34.121Z,63.44
2019-04-11T02:21:34.121Z,64.17
2019-04-11T02:22:34.763Z,63.85
2019-04-11T02:23:35.054Z,63.82
2019-04-11T02:24:34.175Z,63.85
2019-04-11T02:25:34.063Z,63.96
2019-04-11T02:26:34.056Z,63.54
2019-04-11T02:27:34.810Z,63.75
2019-04-11T02:28:34.939Z,63.85
2019-04-11T02:29:35.358Z,63.96
2019-04-11T02:30:36.143Z,63.96
2019-04-11T02:31:34.957Z,63.68
2019-04-11T02:32:34.938Z,64.40
2019-04-11T02:33:34.853Z,64.82
2019-04-11T02:34:35.214Z,64.40
2019-04-11T02:35:35.368Z,64.30
2019-04-11T02:36:35.449Z,64.30
2019-04-11T02:37:34.608Z,64.61
2019-04-11T02:38:34.761Z,65.13
2019-04-11T02:39:35.644Z,64.92
2019-04-11T02:40:34.063Z,65.03
2019-04-11T02:41:35.740Z,64.92
2019-04-11T02:42:35.104Z,65.13
2019-04-11T02:43:34.927Z,64.95
2019-04-11T02:44:51.019Z,65.06
2019-04-11T02:45:45.381Z,64.92
2019-04-11T02:46:43.628Z,65.26
2019-04-11T02:47:37.254Z,65.34
2019-04-11T02:48:35.464Z,65.47
2019-04-11T02:49:35.230Z,65.47
2019-04-11T02:50:34.452Z,65.23
2019-04-11T02:51:34.527Z,65.44
2019-04-11T02:52:35.406Z,65.55
2019-04-11T02:53:34.376Z,65.47
2019-04-11T02:54:34.235Z,65.58
2019-04-11T02:55:33.753Z,65.23
2019-04-11T02:56:35.716Z,65.47
2019-04-11T02:57:34.353Z,65.47
2019-04-11T02:58:34.629Z,65.55
2019-04-11T02:59:34.501Z,65.37
2019-04-11T03:00:37.208Z,65.89
2019-04-11T03:01:34.717Z,66.30
2019-04-11T03:02:34.730Z,65.68
2019-04-11T03:03:34.149Z,65.47
2019-04-11T03:04:34.736Z,64.95
2019-04-11T03:05:35.165Z,65.37
2019-04-11T03:06:35.254Z,64.92
2019-04-11T03:07:34.167Z,65.13
2019-04-11T03:08:35.909Z,64.85
2019-04-11T03:09:35.122Z,65.26
2019-04-11T03:10:35.124Z,64.95
2019-04-11T03:11:34.623Z,65.47
2019-04-11T03:12:34.375Z,65.47
2019-04-11T03:13:35.367Z,67.34
2019-04-11T03:14:53.835Z,65.68
2019-04-11T03:15:48.637Z,65.16
2019-04-11T03:16:46.740Z,64.95
2019-04-11T03:17:40.554Z,64.85
2019-04-11T03:18:53.506Z,65.26
2019-04-11T03:19:47.691Z,65.16
2019-04-11T03:20:43.590Z,65.29
2019-04-11T03:21:39.165Z,65.29
2019-04-11T03:22:34.951Z,65.60
2019-04-11T03:23:35.389Z,65.47
2019-04-11T03:24:35.789Z,65.29
2019-04-11T03:25:33.422Z,65.39
2019-04-11T03:26:33.724Z,65.81
2019-04-11T03:27:34.884Z,65.81
2019-04-11T03:28:35.647Z,65.70
2019-04-11T03:29:35.606Z,66.02
2019-04-11T03:30:48.861Z,65.68
2019-04-11T03:32:13.382Z,65.91
2019-04-11T03:33:25.247Z,65.39
2019-04-11T03:37:50.110Z,66.02
2019-04-11T03:38:51.439Z,65.81
2019-04-11T03:39:43.897Z,65.73
2019-04-11T03:40:43.155Z,65.73
2019-04-11T03:41:42.832Z,66.88
2019-04-11T03:42:41.620Z,68.13
2019-04-11T03:43:36.520Z,67.19
2019-04-11T03:44:31.427Z,68.02
2019-04-11T03:45:44.137Z,67.40
2019-04-11T03:46:38.112Z,67.30
2019-04-11T03:47:38.952Z,67.30
2019-04-11T03:48:38.471Z,67.22
2019-04-11T03:49:31.700Z,67.40
2019-04-11T03:50:28.053Z,66.99
2019-04-11T03:51:25.762Z,67.22
2019-04-11T03:52:23.800Z,66.91
2019-04-11T03:53:26.956Z,67.43
2019-04-11T03:54:25.236Z,67.30
2019-04-11T03:55:24.061Z,67.64
2019-04-11T03:56:24.357Z,67.64
2019-04-11T03:57:23.718Z,67.85
2019-04-11T03:58:24.249Z,67.33
2019-04-11T03:59:23.863Z,67.54
2019-04-11T04:00:24.348Z,67.95
2019-04-11T04:01:25.223Z,67.74
2019-04-11T04:02:24.695Z,67.67
2019-04-11T04:03:24.592Z,67.98
2019-04-11T04:04:23.910Z,68.19
2019-04-11T04:05:23.894Z,68.29
2019-04-11T04:06:23.860Z,68.40
2019-04-11T04:07:23.501Z,68.50
2019-04-11T04:08:24.799Z,69.02
2019-04-11T04:09:24.071Z,68.91
2019-04-11T04:10:23.665Z,68.47
2019-04-11T04:11:26.693Z,68.50
2019-04-11T04:12:23.567Z,68.50
2019-04-11T04:13:24.838Z,68.29
2019-04-11T04:14:24.297Z,68.19
2019-04-11T04:15:39.243Z,68.60
2019-04-11T04:16:29.613Z,68.78
2019-04-11T04:17:25.440Z,69.02
2019-04-11T04:18:23.903Z,68.19
2019-04-11T04:19:24.867Z,68.05
2019-04-11T04:20:24.563Z,68.08
2019-04-11T04:21:24.657Z,68.50
2019-04-11T04:22:24.799Z,68.99
2019-04-11T04:23:23.155Z,68.40
2019-04-11T04:24:23.153Z,68.50
2019-04-11T04:25:24.296Z,68.60
2019-04-11T04:26:23.120Z,68.81
2019-04-11T04:27:25.472Z,68.81
2019-04-11T04:28:23.682Z,68.91
2019-04-11T04:29:25.092Z,69.54
2019-04-11T04:30:24.682Z,68.71
2019-04-11T04:31:24.398Z,68.99
2019-04-11T04:32:24.946Z,68.60
2019-04-11T04:33:23.278Z,69.23
2019-04-11T04:34:23.920Z,69.54
2019-04-11T04:35:24.125Z,69.33
2019-04-11T04:36:24.751Z,69.12
2019-04-11T04:37:24.819Z,69.26
2019-04-11T04:38:23.908Z,69.64
2019-04-11T04:39:24.790Z,69.99
2019-04-11T04:40:35.558Z,69.54
2019-04-11T04:41:33.515Z,69.85
2019-04-11T04:42:31.558Z,69.96
2019-04-11T04:43:25.176Z,69.96
2019-04-11T04:44:24.273Z,69.85
2019-04-11T04:45:23.959Z,69.85
2019-04-11T04:46:36.617Z,70.06
2019-04-11T04:47:33.038Z,69.96
2019-04-11T04:48:26.735Z,69.74
2019-04-11T04:49:23.729Z,70.51
2019-04-11T04:50:24.417Z,71.72
2019-04-11T04:51:24.287Z,71.55
2019-04-11T04:52:22.849Z,70.79
2019-04-11T04:53:25.738Z,70.61
2019-04-11T04:54:24.070Z,70.61
2019-04-11T04:55:23.541Z,71.03
2019-04-11T04:56:27.199Z,70.92
2019-04-11T04:57:24.434Z,71.23
2019-04-11T04:58:24.358Z,70.92
2019-04-11T04:59:23.642Z,71.13
2019-04-11T05:00:23.403Z,71.03
2019-04-11T05:01:23.828Z,71.23
2019-04-11T05:02:24.076Z,71.41
2019-04-11T05:03:24.413Z,71.34
2019-04-11T05:04:23.454Z,71.34
2019-04-11T05:05:24.372Z,71.23
2019-04-11T05:06:24.093Z,71.31
2019-04-11T05:07:23.596Z,71.23
2019-04-11T05:08:22.948Z,71.13
2019-04-11T05:09:23.559Z,71.20
2019-04-11T05:10:24.080Z,71.13
2019-04-11T05:11:23.193Z,71.31
2019-04-11T05:12:22.732Z,71.10
2019-04-11T05:13:23.907Z,70.89
2019-04-11T05:14:23.343Z,70.79
2019-04-11T05:15:24.235Z,70.79
2019-04-11T05:16:22.582Z,70.68
2019-04-11T05:17:23.263Z,70.86
2019-04-11T05:18:23.604Z,70.75
2019-04-11T05:19:23.749Z,70.65
2019-04-11T05:20:23.812Z,70.79
2019-04-11T05:21:23.327Z,69.92
2019-04-11T05:22:22.578Z,70.58
2019-04-11T05:23:23.529Z,70.44
2019-04-11T05:24:22.931Z,70.34
2019-04-11T05:25:22.487Z,70.23
2019-04-11T05:26:23.550Z,70.23
2019-04-11T05:27:22.949Z,72.42
2019-04-11T05:28:23.473Z,72.63
2019-04-11T05:29:22.451Z,71.24
2019-04-11T05:30:23.145Z,70.51
2019-04-11T05:31:22.675Z,69.79
2019-04-11T05:32:22.409Z,69.68
2019-04-11T05:33:23.181Z,69.89
2019-04-11T05:34:23.703Z,69.17
2019-04-11T05:35:22.808Z,70.10
2019-04-11T05:36:22.730Z,70.00
2019-04-11T05:37:22.816Z,69.34
2019-04-11T05:38:23.065Z,69.45
2019-04-11T05:39:23.390Z,68.51
2019-04-11T05:40:22.329Z,68.93
2019-04-11T05:41:23.557Z,68.82
2019-04-11T05:42:25.257Z,68.79
2019-04-11T05:43:26.819Z,68.72
2019-04-11T05:44:23.295Z,68.59
2019-04-11T05:45:24.439Z,68.38
2019-04-11T05:46:31.071Z,68.69
2019-04-11T05:47:23.442Z,68.51
2019-04-11T05:48:25.571Z,67.86
2019-04-11T05:49:23.173Z,68.27
2019-04-11T05:50:22.257Z,68.17
2019-04-11T05:51:23.796Z,68.38
2019-04-11T05:52:22.195Z,68.03
2019-04-11T05:53:22.830Z,68.03
2019-04-11T05:54:22.178Z,67.93
2019-04-11T05:55:22.201Z,67.82
2019-04-11T05:56:22.155Z,67.30
2019-04-11T05:57:24.316Z,67.93
2019-04-11T05:58:24.160Z,67.17
2019-04-11T05:59:23.872Z,66.96
2019-04-11T06:00:22.121Z,67.14
2019-04-11T06:01:22.422Z,66.11
2019-04-11T06:02:22.098Z,65.59
2019-04-11T06:03:22.080Z,65.69
2019-04-11T06:04:24.037Z,65.45
2019-04-11T06:05:24.604Z,65.38
2019-04-11T06:06:23.041Z,65.38
2019-04-11T06:07:23.161Z,65.35
2019-04-11T06:08:26.971Z,65.35
2019-04-11T06:09:23.028Z,65.45
2019-04-11T06:10:22.004Z,64.94
2019-04-11T06:11:24.015Z,64.21
2019-04-11T06:12:21.982Z,64.52
2019-04-11T06:13:22.648Z,63.56
2019-04-11T06:14:22.887Z,63.35
2019-04-11T06:15:22.992Z,63.76
2019-04-11T06:16:23.986Z,65.84
2019-04-11T06:17:23.878Z,64.87
2019-04-11T06:18:27.091Z,66.74
2019-04-11T06:19:22.982Z,65.05
2019-04-11T06:20:22.109Z,63.71
2019-04-11T06:21:22.083Z,62.77
2019-04-11T06:22:21.874Z,62.88
2019-04-11T06:23:21.863Z,62.26
2019-04-11T06:24:21.848Z,61.95
2019-04-11T06:25:23.365Z,61.92
2019-04-11T06:26:22.992Z,61.43
2019-04-11T06:27:22.163Z,61.20
2019-04-11T06:28:22.209Z,61.30
2019-04-11T06:29:26.226Z,61.30
2019-04-11T06:30:22.792Z,60.78
2019-04-11T06:31:22.064Z,61.40
2019-04-11T06:32:21.767Z,61.51
2019-04-11T06:33:22.682Z,61.48
2019-04-11T06:34:24.069Z,60.75
2019-04-11T06:35:22.026Z,60.96
2019-04-11T06:36:21.720Z,59.90
2019-04-11T06:37:21.725Z,60.11
2019-04-11T06:38:22.664Z,59.77
2019-04-11T06:39:21.694Z,58.94
2019-04-11T06:40:22.828Z,59.23
2019-04-11T06:41:22.127Z,58.92
2019-04-11T06:42:24.472Z,58.69
2019-04-11T06:43:21.651Z,58.06
2019-04-11T06:44:21.722Z,58.04
2019-04-11T06:45:21.839Z,57.21
2019-04-11T06:46:21.832Z,57.01
2019-04-11T06:47:22.893Z,56.36
2019-04-11T06:48:29.672Z,56.16
2019-04-11T06:49:22.475Z,55.74
2019-04-11T06:50:22.884Z,56.26
2019-04-11T06:51:22.005Z,55.72
2019-04-11T06:52:21.541Z,55.30
2019-04-11T06:53:21.534Z,56.34
2019-04-11T06:54:21.535Z,55.62
2019-04-11T06:55:22.438Z,55.51
2019-04-11T06:56:21.504Z,55.38
2019-04-11T06:57:21.671Z,54.66
2019-04-11T06:58:21.595Z,54.35
2019-04-11T06:59:21.503Z,55.07
2019-04-11T07:00:21.462Z,54.25
2019-04-11T07:01:22.420Z,54.05
2019-04-11T07:02:24.198Z,54.66
2019-04-11T07:03:25.472Z,53.81
2019-04-11T07:04:21.865Z,52.99
2019-04-11T07:05:22.497Z,52.78
2019-04-11T07:06:21.752Z,52.89
2019-04-11T07:07:21.529Z,53.41
2019-04-11T07:08:22.283Z,55.13
2019-04-11T07:09:22.240Z,58.73
2019-04-11T07:10:22.382Z,56.44
2019-04-11T07:11:21.338Z,54.46
2019-04-11T07:12:22.149Z,55.98
2019-04-11T07:13:21.314Z,52.89
2019-04-11T07:14:22.396Z,52.48
2019-04-11T07:15:21.308Z,52.25
2019-04-11T07:16:21.970Z,53.08
2019-04-11T07:17:21.283Z,51.74
2019-04-11T07:18:22.545Z,49.66
2019-04-11T07:19:21.907Z,51.41
2019-04-11T07:20:21.268Z,51.10
2019-04-11T07:21:21.273Z,49.87
2019-04-11T07:22:21.220Z,50.43
2019-04-11T07:23:22.249Z,49.79
2019-04-11T07:24:22.310Z,51.43
2019-04-11T07:25:22.226Z,49.58
2019-04-11T07:26:21.192Z,50.18
2019-04-11T07:27:21.166Z,49.87
2019-04-11T07:28:21.151Z,48.72
2019-04-11T07:29:21.535Z,50.26
2019-04-11T07:30:23.605Z,47.77
2019-04-11T07:31:21.742Z,47.88
2019-04-11T07:32:22.244Z,47.26
2019-04-11T07:33:21.137Z,47.49
2019-04-11T07:34:21.339Z,47.08
2019-04-11T07:35:21.450Z,48.41
2019-04-11T07:36:21.144Z,47.16
2019-04-11T07:37:21.429Z,47.05
2019-04-11T07:38:21.055Z,49.62
2019-04-11T07:39:22.419Z,47.46
2019-04-11T07:40:21.980Z,47.05
2019-04-11T07:41:21.622Z,46.67
2019-04-11T07:42:21.299Z,46.23
2019-04-11T07:43:20.996Z,46.54
2019-04-11T07:44:21.817Z,46.31
2019-04-11T07:45:21.048Z,47.50
2019-04-11T07:46:21.943Z,47.48
2019-04-11T07:47:23.721Z,44.71
2019-04-11T07:48:21.935Z,45.12
2019-04-11T07:49:21.004Z,42.67
2019-04-11T07:50:21.354Z,42.65
2019-04-11T07:51:20.898Z,44.18
2019-04-11T07:52:20.891Z,42.03
2019-04-11T07:53:21.708Z,41.61
2019-04-11T07:54:20.886Z,42.65
2019-04-11T07:55:21.041Z,40.81
2019-04-11T07:56:20.886Z,41.73
2019-04-11T07:57:20.842Z,40.83
2019-04-11T07:58:21.673Z,40.72
2019-04-11T07:59:21.704Z,42.18
2019-04-11T08:00:35.893Z,42.50
2019-04-11T08:01:21.792Z,41.89
2019-04-11T08:02:23.639Z,42.61
2019-04-11T08:03:21.387Z,42.69
2019-04-11T08:04:21.677Z,42.05
2019-04-11T08:05:21.476Z,40.42
2019-04-11T08:06:20.742Z,40.50
2019-04-11T08:07:20.722Z,39.87
2019-04-11T08:08:21.430Z,39.15
2019-04-11T08:09:20.713Z,39.28
2019-04-11T08:10:20.706Z,40.93
2019-04-11T08:11:20.689Z,40.48
2019-04-11T08:12:21.348Z,39.67
2019-04-11T08:13:20.755Z,39.76
2019-04-11T08:14:20.646Z,40.89
2019-04-11T08:15:21.681Z,37.40
2019-04-11T08:16:20.673Z,37.95
2019-04-11T08:17:32.083Z,40.70
2019-04-11T08:18:21.602Z,39.94
2019-04-11T08:19:21.094Z,41.03
2019-04-11T08:20:21.386Z,38.52
2019-04-11T08:21:21.802Z,37.35
2019-04-11T08:22:20.995Z,36.53
2019-04-11T08:23:21.375Z,37.04
2019-04-11T08:24:20.559Z,36.92
2019-04-11T08:25:20.888Z,35.39
2019-04-11T08:26:20.562Z,36.73
2019-04-11T08:27:20.520Z,36.31
2019-04-11T08:28:20.654Z,35.58
2019-04-11T08:29:20.501Z,35.77
2019-04-11T08:30:20.477Z,35.15
2019-04-11T08:31:21.542Z,35.34
2019-04-11T08:32:20.461Z,34.42
2019-04-11T08:33:20.447Z,35.10
2019-04-11T08:34:21.796Z,34.41
2019-04-11T08:35:20.423Z,33.68
2019-04-11T08:36:20.422Z,33.48
2019-04-11T08:37:21.170Z,32.87
2019-04-11T08:38:20.468Z,34.98
2019-04-11T08:39:20.667Z,36.56
2019-04-11T08:40:20.363Z,37.54
2019-04-11T08:41:20.368Z,39.60
2019-04-11T08:42:21.314Z,42.81
2019-04-11T08:43:21.327Z,42.81
2019-04-11T08:44:20.494Z,39.96
2019-04-11T08:45:21.489Z,40.59
2019-04-11T08:46:28.973Z,40.84
2019-04-11T08:47:40.187Z,41.56
2019-04-11T08:48:21.296Z,42.40
2019-04-11T08:49:29.946Z,43.32
2019-04-11T08:50:28.319Z,43.91
2019-04-11T08:51:29.339Z,42.99
2019-04-11T08:52:21.376Z,43.22
2019-04-11T08:53:20.661Z,42.81
2019-04-11T08:54:20.223Z,42.27
2019-04-11T08:55:21.016Z,41.17
2019-04-11T08:56:21.076Z,37.41
2019-04-11T08:57:20.178Z,37.05
2019-04-11T08:58:20.479Z,36.02
2019-04-11T08:59:20.200Z,34.91
2019-04-11T09:00:20.148Z,36.99
2019-04-11T09:01:20.208Z,36.90
2019-04-11T09:02:20.587Z,36.82
2019-04-11T09:03:20.121Z,37.01
2019-04-11T09:04:20.123Z,35.93
2019-04-11T09:05:20.455Z,36.05
2019-04-11T09:06:20.786Z,37.07
2019-04-11T09:07:21.143Z,35.88
2019-04-11T09:08:20.371Z,37.04
2019-04-11T09:09:20.890Z,37.24
2019-04-11T09:10:20.094Z,37.77
2019-04-11T09:11:20.448Z,37.48
2019-04-11T09:12:20.585Z,40.15
2019-04-11T09:13:20.021Z,38.82
2019-04-11T09:14:20.011Z,39.14
2019-04-11T09:15:21.085Z,40.06
2019-04-11T09:16:19.978Z,39.59
2019-04-11T09:17:21.462Z,40.63
2019-04-11T09:18:19.971Z,40.43
2019-04-11T09:19:20.936Z,39.22
2019-04-11T09:20:21.298Z,40.16
2019-04-11T09:21:20.276Z,40.26
2019-04-11T09:22:20.510Z,39.66
2019-04-11T09:23:19.914Z,41.10
2019-04-11T09:24:19.903Z,41.41
2019-04-11T09:25:21.145Z,42.44
2019-04-11T09:26:20.202Z,40.48
2019-04-11T09:27:20.457Z,39.76
2019-04-11T09:28:19.841Z,39.56
2019-04-11T09:29:19.863Z,40.28
2019-04-11T09:30:20.863Z,40.59
2019-04-11T09:31:19.815Z,40.26
2019-04-11T09:32:20.182Z,40.05
2019-04-11T09:33:20.768Z,39.95
2019-04-11T09:34:19.789Z,39.04
2019-04-11T09:35:19.764Z,38.92
2019-04-11T09:36:19.788Z,39.11
2019-04-11T09:37:20.448Z,39.73
2019-04-11T09:38:19.731Z,37.74
2019-04-11T09:39:19.721Z,36.75
2019-04-11T09:40:19.719Z,35.11
2019-04-11T09:41:20.593Z,35.61
2019-04-11T09:42:21.396Z,34.80
2019-04-11T09:43:19.941Z,35.23
2019-04-11T09:44:20.365Z,36.56
2019-04-11T09:45:19.706Z,36.99
2019-04-11T09:46:19.642Z,36.17
2019-04-11T09:47:19.960Z,36.07
2019-04-11T09:48:21.008Z,36.49
2019-04-11T09:49:20.501Z,37.02
2019-04-11T09:50:20.405Z,36.51
2019-04-11T09:51:19.588Z,36.94
2019-04-11T09:52:20.580Z,36.63
2019-04-11T09:53:20.625Z,37.16
2019-04-11T09:54:19.830Z,36.65
2019-04-11T09:55:19.565Z,37.77
2019-04-11T09:56:20.578Z,36.75
2019-04-11T09:57:20.507Z,36.56
2019-04-11T09:58:19.665Z,37.60
2019-04-11T09:59:20.728Z,37.92
2019-04-11T10:00:20.685Z,37.30
2019-04-11T10:01:20.244Z,37.28
2019-04-11T10:02:19.469Z,36.24
2019-04-11T10:03:19.737Z,36.96
2019-04-11T10:04:19.473Z,36.94
2019-04-11T10:05:20.161Z,35.59
2019-04-11T10:06:19.528Z,34.14
2019-04-11T10:07:19.684Z,34.48
2019-04-11T10:08:19.401Z,32.80
2019-04-11T10:09:19.730Z,35.08
2019-04-11T10:10:19.388Z,35.28
2019-04-11T10:11:19.378Z,33.87
2019-04-11T10:12:20.034Z,33.37
2019-04-11T10:13:20.478Z,33.70
2019-04-11T10:14:19.731Z,34.00
2019-04-11T10:15:19.368Z,33.49
2019-04-11T10:16:19.938Z,35.03
2019-04-11T10:17:21.327Z,34.00
2019-04-11T10:18:25.324Z,32.46
2019-04-11T10:19:20.284Z,32.98
2019-04-11T10:20:20.331Z,32.46
2019-04-11T10:21:19.422Z,32.78
2019-04-11T10:22:19.253Z,31.94
2019-04-11T10:23:19.247Z,30.13
2019-04-11T10:24:20.880Z,30.83
2019-04-11T10:25:19.228Z,30.00
2019-04-11T10:26:20.263Z,29.39
2019-04-11T10:27:20.467Z,30.32
2019-04-11T10:28:19.551Z,30.64
2019-04-11T10:29:19.289Z,30.54
2019-04-11T10:30:19.464Z,30.98
2019-04-11T10:31:20.404Z,31.16
2019-04-11T10:32:19.181Z,31.28
2019-04-11T10:33:20.455Z,31.69
2019-04-11T10:34:19.639Z,31.08
2019-04-11T10:35:20.178Z,32.01
2019-04-11T10:36:19.141Z,32.75
2019-04-11T10:37:20.033Z,32.43
2019-04-11T10:38:20.337Z,32.86
2019-04-11T10:39:19.791Z,32.67
2019-04-11T10:40:21.270Z,33.90
2019-04-11T10:41:19.044Z,35.33
2019-04-11T10:42:20.156Z,35.23
2019-04-11T10:43:20.269Z,35.74
2019-04-11T10:44:19.006Z,34.72
2019-04-11T10:45:19.000Z,35.55
2019-04-11T10:46:19.588Z,36.58
2019-04-11T10:47:19.010Z,36.27
2019-04-11T10:48:19.981Z,35.04
2019-04-11T10:49:19.969Z,35.04
2019-04-11T10:50:19.574Z,35.66
2019-04-11T10:51:18.934Z,36.38
2019-04-11T10:52:26.650Z,35.96
2019-04-11T10:53:27.020Z,35.06
2019-04-11T10:54:27.970Z,35.55
2019-04-11T10:55:19.750Z,36.38
2019-04-11T10:56:19.075Z,35.14
2019-04-11T10:57:20.941Z,35.14
2019-04-11T10:58:18.866Z,35.86
2019-04-11T10:59:19.548Z,35.14
2019-04-11T11:00:19.006Z,35.98
2019-04-11T11:01:19.845Z,35.14
2019-04-11T11:02:18.864Z,34.53
2019-04-11T11:03:18.815Z,34.95
2019-04-11T11:04:19.875Z,35.35
2019-04-11T11:05:19.447Z,35.16
2019-04-11T11:06:19.757Z,34.84
2019-04-11T11:07:18.761Z,34.63
2019-04-11T11:08:19.470Z,34.94
2019-04-11T11:09:19.792Z,34.84
2019-04-11T11:10:19.539Z,35.14
2019-04-11T11:11:19.476Z,35.46
2019-04-11T11:12:19.043Z,36.47
2019-04-11T11:13:18.712Z,35.68
2019-04-11T11:14:18.858Z,35.55
2019-04-11T11:15:19.826Z,35.66
2019-04-11T11:16:18.672Z,35.76
2019-04-11T11:17:43.814Z,35.27
2019-04-11T11:18:54.140Z,34.43
2019-04-11T11:19:40.893Z,35.25
2019-04-11T11:20:26.754Z,35.33
2019-04-11T11:21:19.809Z,35.03
2019-04-11T11:22:18.837Z,34.82
2019-04-11T11:23:18.598Z,34.82
2019-04-11T11:24:19.690Z,34.94
2019-04-11T11:25:19.563Z,34.72
2019-04-11T11:26:22.752Z,33.49
2019-04-11T11:27:18.544Z,34.62
2019-04-11T11:28:18.539Z,33.49
2019-04-11T11:29:19.221Z,33.81
2019-04-11T11:30:18.795Z,33.30
2019-04-11T11:31:18.507Z,32.90
2019-04-11T11:32:18.994Z,34.36
2019-04-11T11:33:18.659Z,34.05
2019-04-11T11:34:20.327Z,34.85
2019-04-11T11:35:22.459Z,33.95
2019-04-11T11:36:19.454Z,34.14
2019-04-11T11:37:18.556Z,34.01
2019-04-11T11:38:19.794Z,33.70
2019-04-11T11:39:19.311Z,33.70
2019-04-11T11:40:18.956Z,32.98
2019-04-11T11:41:18.520Z,33.40
2019-04-11T11:42:18.394Z,33.95
2019-04-11T11:43:19.011Z,35.08
2019-04-11T11:44:19.587Z,34.87
2019-04-11T11:45:19.442Z,36.12
2019-04-11T11:46:19.274Z,36.53
2019-04-11T11:47:19.511Z,37.26
2019-04-11T11:48:20.678Z,36.65
2019-04-11T11:49:32.747Z,36.65
2019-04-11T11:50:21.688Z,37.37
2019-04-11T11:51:22.688Z,37.26
2019-04-11T11:52:19.353Z,37.57
2019-04-11T11:53:18.512Z,38.10
2019-04-11T11:54:18.277Z,38.31
2019-04-11T11:55:19.838Z,38.41
2019-04-11T11:56:18.218Z,38.92
2019-04-11T11:57:18.379Z,39.95
2019-04-11T11:58:19.813Z,38.82
2019-04-11T11:59:18.597Z,39.01
2019-04-11T12:00:18.181Z,37.90
2019-04-11T12:01:18.163Z,38.31
2019-04-11T12:02:19.784Z,37.49
2019-04-11T12:03:19.090Z,38.51
2019-04-11T12:04:19.090Z,38.82
2019-04-11T12:05:18.558Z,38.94
2019-04-11T12:06:22.328Z,39.03
2019-04-11T12:07:18.964Z,38.94
2019-04-11T12:08:18.299Z,38.82
2019-04-11T12:09:18.401Z,39.03
2019-04-11T12:10:18.088Z,39.13
2019-04-11T12:11:18.069Z,39.75
2019-04-11T12:12:18.045Z,39.23
2019-04-11T12:13:19.166Z,40.38
2019-04-11T12:14:18.132Z,40.36
2019-04-11T12:15:20.930Z,40.26
2019-04-11T12:16:21.343Z,40.28
2019-04-11T12:17:18.621Z,39.95
2019-04-11T12:18:18.873Z,42.72
2019-04-11T12:19:20.438Z,41.90
2019-04-11T12:20:18.607Z,42.91
2019-04-11T12:21:21.909Z,44.04
2019-04-11T12:22:20.026Z,39.73
2019-04-11T12:23:17.935Z,39.52
2019-04-11T12:24:17.923Z,40.24
2019-04-11T12:25:17.904Z,40.55
2019-04-11T12:26:18.434Z,39.73
2019-04-11T12:27:18.442Z,40.75
2019-04-11T12:29:27.863Z,41.46
2019-04-11T12:30:29.699Z,41.16
2019-04-11T12:31:31.173Z,40.86
2019-04-11T12:32:26.612Z,42.19
2019-04-11T12:33:27.694Z,43.42
2019-04-11T12:34:26.601Z,42.40
2019-04-11T12:35:27.698Z,40.98
2019-04-11T12:36:26.587Z,41.70
2019-04-11T12:37:27.511Z,41.51
2019-04-11T12:38:26.557Z,42.64
2019-04-11T12:39:28.743Z,42.33
2019-04-11T12:40:26.523Z,43.16
2019-04-11T12:41:26.509Z,42.95
2019-04-11T12:42:26.510Z,42.46
2019-04-11T12:43:26.492Z,42.14
2019-04-11T12:44:26.754Z,41.94
2019-04-11T12:45:26.468Z,42.46
2019-04-11T12:46:30.088Z,42.46
2019-04-11T12:47:26.487Z,42.66
2019-04-11T12:48:26.441Z,43.07
2019-04-11T12:49:26.428Z,42.77
2019-04-11T12:50:26.418Z,42.05
2019-04-11T12:51:26.416Z,41.53
2019-04-11T12:52:26.395Z,41.53
2019-04-11T12:53:26.419Z,42.25
2019-04-11T12:54:26.378Z,41.63
2019-04-11T12:55:26.366Z,41.74
2019-04-11T12:56:26.352Z,41.96
2019-04-11T12:57:26.341Z,41.55